sensor_id;sensor_type;location;lat;lon;timestamp;temperature;humidity
14172;DHT22;7165;52.388;4.928;2022-12-01T00:01:54;5.40;99.90
14172;DHT22;7165;52.388;4.928;2022-12-01T00:04:22;5.40;99.90
14172;DHT22;7165;52.388;4.928;2022-12-01T00:06:49;5.40;99.90
14172;DHT22;7165;52.388;4.928;2022-12-01T00:09:15;5.40;99.90
14172;DHT22;7165;52.388;4.928;2022-12-01T00:11:59;5.50;99.90
14172;DHT22;7165;52.388;4.928;2022-12-01T00:14:26;5.50;99.90
14172;DHT22;7165;52.388;4.928;2022-12-01T00:16:53;5.50;99.90
14172;DHT22;7165;52.388;4.928;2022-12-01T00:19:24;5.60;99.90
14172;DHT22;7165;52.388;4.928;2022-12-01T00:21:51;5.60;99.90
14172;DHT22;7165;52.388;4.928;2022-12-01T00:24:18;5.60;99.90
14172;DHT22;7165;52.388;4.928;2022-12-01T00:26:47;5.60;99.90
14172;DHT22;7165;52.388;4.928;2022-12-01T00:29:14;5.60;99.90
14172;DHT22;7165;52.388;4.928;2022-12-01T00:31:41;5.70;99.90
14172;DHT22;7165;52.388;4.928;2022-12-01T00:34:12;5.70;99.90
14172;DHT22;7165;52.388;4.928;2022-12-01T00:36:47;5.70;99.90
14172;DHT22;7165;52.388;4.928;2022-12-01T00:39:13;5.70;99.90
14172;DHT22;7165;52.388;4.928;2022-12-01T00:41:40;5.70;99.90
14172;DHT22;7165;52.388;4.928;2022-12-01T00:44:07;5.70;99.90
14172;DHT22;7165;52.388;4.928;2022-12-01T00:46:33;5.70;99.90
14172;DHT22;7165;52.388;4.928;2022-12-01T00:49:00;5.70;99.90
14172;DHT22;7165;52.388;4.928;2022-12-01T00:51:27;5.70;99.90
14172;DHT22;7165;52.388;4.928;2022-12-01T00:53:55;5.70;99.90
14172;DHT22;7165;52.388;4.928;2022-12-01T00:56:21;5.70;99.90
14172;DHT22;7165;52.388;4.928;2022-12-01T00:58:48;5.80;99.90
14172;DHT22;7165;52.388;4.928;2022-12-01T01:01:15;5.80;99.90
14172;DHT22;7165;52.388;4.928;2022-12-01T01:03:41;5.80;99.90
14172;DHT22;7165;52.388;4.928;2022-12-01T01:06:10;5.80;99.90
14172;DHT22;7165;52.388;4.928;2022-12-01T01:08:38;5.80;99.90
14172;DHT22;7165;52.388;4.928;2022-12-01T01:11:07;5.80;99.90
14172;DHT22;7165;52.388;4.928;2022-12-01T01:13:34;5.80;99.90
14172;DHT22;7165;52.388;4.928;2022-12-01T01:16:02;5.80;99.90
14172;DHT22;7165;52.388;4.928;2022-12-01T01:18:30;5.80;99.90
14172;DHT22;7165;52.388;4.928;2022-12-01T01:20:58;5.80;99.90
14172;DHT22;7165;52.388;4.928;2022-12-01T01:23:25;5.70;99.90
14172;DHT22;7165;52.388;4.928;2022-12-01T01:25:52;5.70;99.90
14172;DHT22;7165;52.388;4.928;2022-12-01T01:28:20;5.70;99.90
14172;DHT22;7165;52.388;4.928;2022-12-01T01:30:46;5.70;99.90
14172;DHT22;7165;52.388;4.928;2022-12-01T01:33:13;5.80;99.90
14172;DHT22;7165;52.388;4.928;2022-12-01T01:35:40;5.80;99.90
14172;DHT22;7165;52.388;4.928;2022-12-01T01:38:06;5.80;99.90
14172;DHT22;7165;52.388;4.928;2022-12-01T01:40:33;5.80;99.90
14172;DHT22;7165;52.388;4.928;2022-12-01T01:43:00;5.90;99.90
14172;DHT22;7165;52.388;4.928;2022-12-01T01:45:29;6.00;99.90
14172;DHT22;7165;52.388;4.928;2022-12-01T01:47:57;6.00;99.90
14172;DHT22;7165;52.388;4.928;2022-12-01T01:50:27;5.90;99.90
14172;DHT22;7165;52.388;4.928;2022-12-01T01:52:58;6.00;99.90
14172;DHT22;7165;52.388;4.928;2022-12-01T01:55:26;6.00;99.90
14172;DHT22;7165;52.388;4.928;2022-12-01T01:57:53;6.00;99.90
14172;DHT22;7165;52.388;4.928;2022-12-01T02:00:21;6.00;99.90
14172;DHT22;7165;52.388;4.928;2022-12-01T02:02:49;6.00;99.90
14172;DHT22;7165;52.388;4.928;2022-12-01T02:05:18;6.10;99.90
14172;DHT22;7165;52.388;4.928;2022-12-01T02:07:47;6.10;99.90
14172;DHT22;7165;52.388;4.928;2022-12-01T02:10:15;6.10;99.90
14172;DHT22;7165;52.388;4.928;2022-12-01T02:13:03;6.10;99.90
14172;DHT22;7165;52.388;4.928;2022-12-01T02:15:36;6.10;99.90
14172;DHT22;7165;52.388;4.928;2022-12-01T02:18:17;6.10;99.90
14172;DHT22;7165;52.388;4.928;2022-12-01T02:21:17;6.10;99.90
14172;DHT22;7165;52.388;4.928;2022-12-01T02:26:57;6.00;99.90
14172;DHT22;7165;52.388;4.928;2022-12-01T02:30:00;6.00;99.90
14172;DHT22;7165;52.388;4.928;2022-12-01T02:32:34;5.90;99.90
14172;DHT22;7165;52.388;4.928;2022-12-01T02:35:10;5.90;99.90
14172;DHT22;7165;52.388;4.928;2022-12-01T02:37:44;5.90;99.90
14172;DHT22;7165;52.388;4.928;2022-12-01T02:40:16;5.80;99.90
14172;DHT22;7165;52.388;4.928;2022-12-01T02:42:47;5.90;99.90
14172;DHT22;7165;52.388;4.928;2022-12-01T02:45:33;5.80;99.90
14172;DHT22;7165;52.388;4.928;2022-12-01T02:48:07;5.80;99.90
14172;DHT22;7165;52.388;4.928;2022-12-01T02:50:37;5.80;99.90
14172;DHT22;7165;52.388;4.928;2022-12-01T02:53:08;5.80;99.90
14172;DHT22;7165;52.388;4.928;2022-12-01T02:55:45;5.80;99.90
14172;DHT22;7165;52.388;4.928;2022-12-01T02:58:12;5.90;99.90
14172;DHT22;7165;52.388;4.928;2022-12-01T03:00:40;5.90;99.90
14172;DHT22;7165;52.388;4.928;2022-12-01T03:03:26;5.90;99.90
14172;DHT22;7165;52.388;4.928;2022-12-01T03:06:00;5.90;99.90
14172;DHT22;7165;52.388;4.928;2022-12-01T03:08:33;5.90;99.90
14172;DHT22;7165;52.388;4.928;2022-12-01T03:11:11;5.90;99.90
14172;DHT22;7165;52.388;4.928;2022-12-01T03:13:56;5.90;99.90
14172;DHT22;7165;52.388;4.928;2022-12-01T03:16:28;6.00;99.90
14172;DHT22;7165;52.388;4.928;2022-12-01T03:18:59;6.00;99.90
14172;DHT22;7165;52.388;4.928;2022-12-01T03:21:33;5.90;99.90
14172;DHT22;7165;52.388;4.928;2022-12-01T03:24:04;6.00;99.90
14172;DHT22;7165;52.388;4.928;2022-12-01T03:26:32;5.90;99.90
14172;DHT22;7165;52.388;4.928;2022-12-01T03:29:04;5.90;99.90
14172;DHT22;7165;52.388;4.928;2022-12-01T03:31:33;6.00;99.90
14172;DHT22;7165;52.388;4.928;2022-12-01T03:34:06;6.00;99.90
14172;DHT22;7165;52.388;4.928;2022-12-01T03:36:38;6.00;99.90
14172;DHT22;7165;52.388;4.928;2022-12-01T03:39:09;6.10;99.90
14172;DHT22;7165;52.388;4.928;2022-12-01T03:41:40;6.10;99.90
14172;DHT22;7165;52.388;4.928;2022-12-01T03:44:11;6.10;99.90
14172;DHT22;7165;52.388;4.928;2022-12-01T03:46:47;6.10;99.90
14172;DHT22;7165;52.388;4.928;2022-12-01T03:49:17;6.10;99.90
14172;DHT22;7165;52.388;4.928;2022-12-01T03:51:49;6.10;99.90
14172;DHT22;7165;52.388;4.928;2022-12-01T03:54:25;6.10;99.90
14172;DHT22;7165;52.388;4.928;2022-12-01T03:56:55;6.20;99.90
14172;DHT22;7165;52.388;4.928;2022-12-01T03:59:24;6.20;99.90
14172;DHT22;7165;52.388;4.928;2022-12-01T04:01:51;6.10;99.90
14172;DHT22;7165;52.388;4.928;2022-12-01T04:04:19;6.10;99.90
14172;DHT22;7165;52.388;4.928;2022-12-01T04:06:48;6.10;99.90
14172;DHT22;7165;52.388;4.928;2022-12-01T04:09:15;6.10;99.90
14172;DHT22;7165;52.388;4.928;2022-12-01T04:11:42;6.10;99.90
14172;DHT22;7165;52.388;4.928;2022-12-01T04:14:26;6.10;99.90
14172;DHT22;7165;52.388;4.928;2022-12-01T04:16:53;6.00;99.90
14172;DHT22;7165;52.388;4.928;2022-12-01T04:19:21;6.00;99.90
14172;DHT22;7165;52.388;4.928;2022-12-01T04:21:48;6.00;99.90
14172;DHT22;7165;52.388;4.928;2022-12-01T04:24:15;5.90;99.90
14172;DHT22;7165;52.388;4.928;2022-12-01T04:26:41;5.90;99.90
14172;DHT22;7165;52.388;4.928;2022-12-01T04:29:11;5.90;99.90
14172;DHT22;7165;52.388;4.928;2022-12-01T04:31:38;5.90;99.90
14172;DHT22;7165;52.388;4.928;2022-12-01T04:34:05;5.90;99.90
14172;DHT22;7165;52.388;4.928;2022-12-01T04:36:34;5.90;99.90
14172;DHT22;7165;52.388;4.928;2022-12-01T04:39:01;5.90;99.90
14172;DHT22;7165;52.388;4.928;2022-12-01T04:41:28;5.90;99.90
14172;DHT22;7165;52.388;4.928;2022-12-01T04:43:55;5.90;99.90
14172;DHT22;7165;52.388;4.928;2022-12-01T04:46:22;5.90;99.90
14172;DHT22;7165;52.388;4.928;2022-12-01T04:48:49;5.90;99.90
14172;DHT22;7165;52.388;4.928;2022-12-01T04:51:16;5.80;99.90
14172;DHT22;7165;52.388;4.928;2022-12-01T04:53:44;5.80;99.90
14172;DHT22;7165;52.388;4.928;2022-12-01T04:56:11;5.80;99.90
14172;DHT22;7165;52.388;4.928;2022-12-01T04:58:38;5.80;99.90
14172;DHT22;7165;52.388;4.928;2022-12-01T05:01:07;5.70;99.90
14172;DHT22;7165;52.388;4.928;2022-12-01T05:03:35;5.70;99.90
14172;DHT22;7165;52.388;4.928;2022-12-01T05:06:03;5.70;99.90
14172;DHT22;7165;52.388;4.928;2022-12-01T05:08:30;5.70;99.90
14172;DHT22;7165;52.388;4.928;2022-12-01T05:10:59;5.70;99.90
14172;DHT22;7165;52.388;4.928;2022-12-01T05:13:27;5.70;99.90
14172;DHT22;7165;52.388;4.928;2022-12-01T05:16:02;5.60;99.90
14172;DHT22;7165;52.388;4.928;2022-12-01T05:18:29;5.60;99.90
14172;DHT22;7165;52.388;4.928;2022-12-01T05:20:55;5.60;99.90
14172;DHT22;7165;52.388;4.928;2022-12-01T05:23:21;5.60;99.90
14172;DHT22;7165;52.388;4.928;2022-12-01T05:25:48;5.60;99.90
14172;DHT22;7165;52.388;4.928;2022-12-01T05:28:16;5.50;99.90
14172;DHT22;7165;52.388;4.928;2022-12-01T05:30:42;5.60;99.90
14172;DHT22;7165;52.388;4.928;2022-12-01T05:33:09;5.60;99.90
14172;DHT22;7165;52.388;4.928;2022-12-01T05:35:36;5.60;99.90
14172;DHT22;7165;52.388;4.928;2022-12-01T05:38:18;5.60;99.90
14172;DHT22;7165;52.388;4.928;2022-12-01T05:40:49;5.70;99.90
14172;DHT22;7165;52.388;4.928;2022-12-01T05:43:17;5.70;99.90
14172;DHT22;7165;52.388;4.928;2022-12-01T05:45:44;5.70;99.90
14172;DHT22;7165;52.388;4.928;2022-12-01T05:48:11;5.70;99.90
14172;DHT22;7165;52.388;4.928;2022-12-01T05:50:38;5.70;99.90
14172;DHT22;7165;52.388;4.928;2022-12-01T05:53:05;5.70;99.90
14172;DHT22;7165;52.388;4.928;2022-12-01T05:55:32;5.70;99.90
14172;DHT22;7165;52.388;4.928;2022-12-01T05:57:59;5.70;99.90
14172;DHT22;7165;52.388;4.928;2022-12-01T06:00:27;5.70;99.90
14172;DHT22;7165;52.388;4.928;2022-12-01T06:02:54;5.70;99.90
14172;DHT22;7165;52.388;4.928;2022-12-01T06:05:20;5.70;99.90
14172;DHT22;7165;52.388;4.928;2022-12-01T06:07:47;5.70;99.90
14172;DHT22;7165;52.388;4.928;2022-12-01T06:10:14;5.60;99.90
14172;DHT22;7165;52.388;4.928;2022-12-01T06:12:41;5.60;99.90
14172;DHT22;7165;52.388;4.928;2022-12-01T06:15:09;5.60;99.90
14172;DHT22;7165;52.388;4.928;2022-12-01T06:17:37;5.60;99.90
14172;DHT22;7165;52.388;4.928;2022-12-01T06:20:06;5.60;99.90
14172;DHT22;7165;52.388;4.928;2022-12-01T06:22:33;5.60;99.90
14172;DHT22;7165;52.388;4.928;2022-12-01T06:24:59;5.60;99.90
14172;DHT22;7165;52.388;4.928;2022-12-01T06:27:26;5.70;99.90
14172;DHT22;7165;52.388;4.928;2022-12-01T06:29:52;5.60;99.90
14172;DHT22;7165;52.388;4.928;2022-12-01T06:32:19;5.70;99.90
14172;DHT22;7165;52.388;4.928;2022-12-01T06:34:47;5.70;99.90
14172;DHT22;7165;52.388;4.928;2022-12-01T06:37:14;5.70;99.90
14172;DHT22;7165;52.388;4.928;2022-12-01T06:39:41;5.70;99.90
14172;DHT22;7165;52.388;4.928;2022-12-01T06:42:07;5.70;99.90
14172;DHT22;7165;52.388;4.928;2022-12-01T06:44:34;5.70;99.90
14172;DHT22;7165;52.388;4.928;2022-12-01T06:47:01;5.70;99.90
14172;DHT22;7165;52.388;4.928;2022-12-01T06:49:28;5.80;99.90
14172;DHT22;7165;52.388;4.928;2022-12-01T06:51:56;5.80;99.90
14172;DHT22;7165;52.388;4.928;2022-12-01T06:54:23;5.80;99.90
14172;DHT22;7165;52.388;4.928;2022-12-01T06:56:49;5.80;99.90
14172;DHT22;7165;52.388;4.928;2022-12-01T06:59:16;5.80;99.90
14172;DHT22;7165;52.388;4.928;2022-12-01T07:01:44;5.80;99.90
14172;DHT22;7165;52.388;4.928;2022-12-01T07:04:10;5.80;99.90
14172;DHT22;7165;52.388;4.928;2022-12-01T07:06:37;5.80;99.90
14172;DHT22;7165;52.388;4.928;2022-12-01T07:09:05;5.90;99.90
14172;DHT22;7165;52.388;4.928;2022-12-01T07:11:32;5.90;99.90
14172;DHT22;7165;52.388;4.928;2022-12-01T07:14:00;5.90;99.90
14172;DHT22;7165;52.388;4.928;2022-12-01T07:16:27;5.90;99.90
14172;DHT22;7165;52.388;4.928;2022-12-01T07:18:54;5.90;99.90
14172;DHT22;7165;52.388;4.928;2022-12-01T07:21:20;5.90;99.90
14172;DHT22;7165;52.388;4.928;2022-12-01T07:23:48;5.90;99.90
14172;DHT22;7165;52.388;4.928;2022-12-01T07:26:17;5.90;99.90
14172;DHT22;7165;52.388;4.928;2022-12-01T07:28:44;5.90;99.90
14172;DHT22;7165;52.388;4.928;2022-12-01T07:31:13;5.90;99.90
14172;DHT22;7165;52.388;4.928;2022-12-01T07:33:40;5.90;99.90
14172;DHT22;7165;52.388;4.928;2022-12-01T07:36:08;5.90;99.90
14172;DHT22;7165;52.388;4.928;2022-12-01T07:38:36;5.90;99.90
14172;DHT22;7165;52.388;4.928;2022-12-01T07:41:03;5.90;99.90
14172;DHT22;7165;52.388;4.928;2022-12-01T07:43:32;5.90;99.90
14172;DHT22;7165;52.388;4.928;2022-12-01T07:46:06;5.90;99.90
14172;DHT22;7165;52.388;4.928;2022-12-01T07:48:33;5.90;99.90
14172;DHT22;7165;52.388;4.928;2022-12-01T07:51:01;5.90;99.90
14172;DHT22;7165;52.388;4.928;2022-12-01T07:53:29;5.90;99.90
14172;DHT22;7165;52.388;4.928;2022-12-01T07:55:57;5.90;99.90
14172;DHT22;7165;52.388;4.928;2022-12-01T07:58:23;6.00;99.90
14172;DHT22;7165;52.388;4.928;2022-12-01T08:00:52;6.00;99.90
14172;DHT22;7165;52.388;4.928;2022-12-01T08:03:19;6.00;99.90
14172;DHT22;7165;52.388;4.928;2022-12-01T08:05:54;6.00;99.90
14172;DHT22;7165;52.388;4.928;2022-12-01T08:08:21;6.10;99.90
14172;DHT22;7165;52.388;4.928;2022-12-01T08:10:48;6.10;99.90
14172;DHT22;7165;52.388;4.928;2022-12-01T08:13:15;6.10;99.90
14172;DHT22;7165;52.388;4.928;2022-12-01T08:15:41;6.10;99.90
14172;DHT22;7165;52.388;4.928;2022-12-01T08:18:09;6.20;99.90
14172;DHT22;7165;52.388;4.928;2022-12-01T08:20:36;6.20;99.90
14172;DHT22;7165;52.388;4.928;2022-12-01T08:23:03;6.20;99.90
14172;DHT22;7165;52.388;4.928;2022-12-01T08:25:29;6.30;99.90
14172;DHT22;7165;52.388;4.928;2022-12-01T08:27:59;6.30;99.90
14172;DHT22;7165;52.388;4.928;2022-12-01T08:30:26;6.30;99.90
14172;DHT22;7165;52.388;4.928;2022-12-01T08:32:53;6.30;99.90
14172;DHT22;7165;52.388;4.928;2022-12-01T08:35:21;6.30;99.90
14172;DHT22;7165;52.388;4.928;2022-12-01T08:37:50;6.40;99.90
14172;DHT22;7165;52.388;4.928;2022-12-01T08:40:17;6.40;99.90
14172;DHT22;7165;52.388;4.928;2022-12-01T08:42:44;6.40;99.90
14172;DHT22;7165;52.388;4.928;2022-12-01T08:45:11;6.40;99.90
14172;DHT22;7165;52.388;4.928;2022-12-01T08:47:37;6.40;99.90
14172;DHT22;7165;52.388;4.928;2022-12-01T08:50:05;6.50;99.90
14172;DHT22;7165;52.388;4.928;2022-12-01T08:52:33;6.50;99.90
14172;DHT22;7165;52.388;4.928;2022-12-01T08:55:00;6.50;99.90
14172;DHT22;7165;52.388;4.928;2022-12-01T08:57:28;6.50;99.90
14172;DHT22;7165;52.388;4.928;2022-12-01T08:59:55;6.50;99.90
14172;DHT22;7165;52.388;4.928;2022-12-01T09:02:22;6.50;99.90
14172;DHT22;7165;52.388;4.928;2022-12-01T09:04:50;6.50;99.90
14172;DHT22;7165;52.388;4.928;2022-12-01T09:07:18;6.50;99.90
14172;DHT22;7165;52.388;4.928;2022-12-01T09:09:46;6.50;99.90
14172;DHT22;7165;52.388;4.928;2022-12-01T09:12:13;6.60;99.90
14172;DHT22;7165;52.388;4.928;2022-12-01T09:14:41;6.60;99.90
14172;DHT22;7165;52.388;4.928;2022-12-01T09:17:10;6.60;99.90
14172;DHT22;7165;52.388;4.928;2022-12-01T09:19:36;6.60;99.90
14172;DHT22;7165;52.388;4.928;2022-12-01T09:22:03;6.60;99.90
14172;DHT22;7165;52.388;4.928;2022-12-01T09:24:30;6.70;99.90
14172;DHT22;7165;52.388;4.928;2022-12-01T09:26:58;6.70;99.90
14172;DHT22;7165;52.388;4.928;2022-12-01T09:29:25;6.70;99.90
14172;DHT22;7165;52.388;4.928;2022-12-01T09:31:54;6.70;99.90
14172;DHT22;7165;52.388;4.928;2022-12-01T09:34:21;6.80;99.90
14172;DHT22;7165;52.388;4.928;2022-12-01T09:36:47;6.80;99.90
14172;DHT22;7165;52.388;4.928;2022-12-01T09:39:16;6.80;99.90
14172;DHT22;7165;52.388;4.928;2022-12-01T09:41:45;6.90;99.90
14172;DHT22;7165;52.388;4.928;2022-12-01T09:44:17;6.90;99.90
14172;DHT22;7165;52.388;4.928;2022-12-01T09:46:51;6.90;99.90
14172;DHT22;7165;52.388;4.928;2022-12-01T09:49:21;7.00;99.90
14172;DHT22;7165;52.388;4.928;2022-12-01T09:51:50;7.00;99.90
14172;DHT22;7165;52.388;4.928;2022-12-01T09:54:18;7.10;99.90
14172;DHT22;7165;52.388;4.928;2022-12-01T09:56:46;7.10;99.90
14172;DHT22;7165;52.388;4.928;2022-12-01T09:59:18;7.20;99.90
14172;DHT22;7165;52.388;4.928;2022-12-01T10:01:49;7.20;99.90
14172;DHT22;7165;52.388;4.928;2022-12-01T10:04:22;7.20;99.90
14172;DHT22;7165;52.388;4.928;2022-12-01T10:06:53;7.30;99.90
14172;DHT22;7165;52.388;4.928;2022-12-01T10:09:24;7.30;99.90
14172;DHT22;7165;52.388;4.928;2022-12-01T10:11:57;7.40;99.90
14172;DHT22;7165;52.388;4.928;2022-12-01T10:14:28;7.40;99.90
14172;DHT22;7165;52.388;4.928;2022-12-01T10:17:05;7.50;99.90
14172;DHT22;7165;52.388;4.928;2022-12-01T10:19:38;7.50;99.90
14172;DHT22;7165;52.388;4.928;2022-12-01T10:22:24;7.60;99.90
14172;DHT22;7165;52.388;4.928;2022-12-01T10:24:55;7.60;99.90
14172;DHT22;7165;52.388;4.928;2022-12-01T10:27:38;7.60;99.90
14172;DHT22;7165;52.388;4.928;2022-12-01T10:30:13;7.70;99.90
14172;DHT22;7165;52.388;4.928;2022-12-01T10:32:46;7.70;99.90
14172;DHT22;7165;52.388;4.928;2022-12-01T10:35:17;7.70;99.90
14172;DHT22;7165;52.388;4.928;2022-12-01T10:37:45;7.80;99.90
14172;DHT22;7165;52.388;4.928;2022-12-01T10:40:14;7.80;99.90
14172;DHT22;7165;52.388;4.928;2022-12-01T10:42:42;7.90;99.90
14172;DHT22;7165;52.388;4.928;2022-12-01T10:45:14;7.90;99.90
14172;DHT22;7165;52.388;4.928;2022-12-01T10:48:06;8.00;99.90
14172;DHT22;7165;52.388;4.928;2022-12-01T10:50:33;8.00;99.90
14172;DHT22;7165;52.388;4.928;2022-12-01T10:53:00;8.00;99.90
14172;DHT22;7165;52.388;4.928;2022-12-01T10:55:29;8.10;99.90
14172;DHT22;7165;52.388;4.928;2022-12-01T10:57:59;8.10;99.90
14172;DHT22;7165;52.388;4.928;2022-12-01T11:00:33;8.10;99.90
14172;DHT22;7165;52.388;4.928;2022-12-01T11:03:02;8.20;99.90
14172;DHT22;7165;52.388;4.928;2022-12-01T11:05:31;8.20;99.90
14172;DHT22;7165;52.388;4.928;2022-12-01T11:08:00;8.20;99.90
14172;DHT22;7165;52.388;4.928;2022-12-01T11:10:28;8.20;99.90
14172;DHT22;7165;52.388;4.928;2022-12-01T11:12:57;8.20;99.90
14172;DHT22;7165;52.388;4.928;2022-12-01T11:15:26;8.30;99.90
14172;DHT22;7165;52.388;4.928;2022-12-01T11:18:00;8.30;99.90
14172;DHT22;7165;52.388;4.928;2022-12-01T11:20:30;8.40;99.90
14172;DHT22;7165;52.388;4.928;2022-12-01T11:23:21;8.40;99.90
14172;DHT22;7165;52.388;4.928;2022-12-01T11:25:55;8.50;99.90
14172;DHT22;7165;52.388;4.928;2022-12-01T11:28:23;8.50;99.90
14172;DHT22;7165;52.388;4.928;2022-12-01T11:30:54;8.50;99.90
14172;DHT22;7165;52.388;4.928;2022-12-01T11:33:23;8.50;99.90
14172;DHT22;7165;52.388;4.928;2022-12-01T11:35:50;8.50;99.90
14172;DHT22;7165;52.388;4.928;2022-12-01T11:38:20;8.60;99.90
14172;DHT22;7165;52.388;4.928;2022-12-01T11:40:48;8.60;99.90
14172;DHT22;7165;52.388;4.928;2022-12-01T11:43:22;8.60;99.90
14172;DHT22;7165;52.388;4.928;2022-12-01T11:45:50;8.60;99.90
14172;DHT22;7165;52.388;4.928;2022-12-01T11:48:24;8.60;99.90
14172;DHT22;7165;52.388;4.928;2022-12-01T11:51:04;8.60;99.90
14172;DHT22;7165;52.388;4.928;2022-12-01T11:53:33;8.60;99.90
14172;DHT22;7165;52.388;4.928;2022-12-01T11:56:17;8.60;99.90
14172;DHT22;7165;52.388;4.928;2022-12-01T11:58:46;8.60;99.90
14172;DHT22;7165;52.388;4.928;2022-12-01T12:01:21;8.70;99.90
14172;DHT22;7165;52.388;4.928;2022-12-01T12:03:57;8.70;99.90
14172;DHT22;7165;52.388;4.928;2022-12-01T12:06:33;8.70;99.90
14172;DHT22;7165;52.388;4.928;2022-12-01T12:09:22;8.70;99.90
14172;DHT22;7165;52.388;4.928;2022-12-01T12:11:58;8.60;99.90
14172;DHT22;7165;52.388;4.928;2022-12-01T12:14:50;8.60;99.90
14172;DHT22;7165;52.388;4.928;2022-12-01T12:17:27;8.60;99.90
14172;DHT22;7165;52.388;4.928;2022-12-01T12:20:15;8.70;99.90
14172;DHT22;7165;52.388;4.928;2022-12-01T12:22:56;8.80;99.90
14172;DHT22;7165;52.388;4.928;2022-12-01T12:25:31;8.80;99.90
14172;DHT22;7165;52.388;4.928;2022-12-01T12:28:12;8.80;99.90
14172;DHT22;7165;52.388;4.928;2022-12-01T12:30:49;8.80;99.90
14172;DHT22;7165;52.388;4.928;2022-12-01T12:36:26;8.80;99.90
14172;DHT22;7165;52.388;4.928;2022-12-01T12:39:04;8.80;99.90
14172;DHT22;7165;52.388;4.928;2022-12-01T12:41:36;8.70;99.90
14172;DHT22;7165;52.388;4.928;2022-12-01T12:44:21;8.70;99.90
14172;DHT22;7165;52.388;4.928;2022-12-01T12:46:59;8.60;99.90
14172;DHT22;7165;52.388;4.928;2022-12-01T12:49:36;8.60;99.90
14172;DHT22;7165;52.388;4.928;2022-12-01T12:52:12;8.70;99.90
14172;DHT22;7165;52.388;4.928;2022-12-01T12:54:44;8.70;99.90
14172;DHT22;7165;52.388;4.928;2022-12-01T12:57:21;8.70;99.90
14172;DHT22;7165;52.388;4.928;2022-12-01T12:59:52;8.80;99.90
14172;DHT22;7165;52.388;4.928;2022-12-01T13:02:25;8.80;99.90
14172;DHT22;7165;52.388;4.928;2022-12-01T13:04:58;8.80;99.90
14172;DHT22;7165;52.388;4.928;2022-12-01T13:07:33;8.80;99.90
14172;DHT22;7165;52.388;4.928;2022-12-01T13:10:06;8.80;99.90
14172;DHT22;7165;52.388;4.928;2022-12-01T13:12:36;8.80;99.90
14172;DHT22;7165;52.388;4.928;2022-12-01T13:15:12;8.80;99.90
14172;DHT22;7165;52.388;4.928;2022-12-01T13:17:41;8.80;99.90
14172;DHT22;7165;52.388;4.928;2022-12-01T13:20:13;8.80;99.90
14172;DHT22;7165;52.388;4.928;2022-12-01T13:22:42;8.80;99.90
14172;DHT22;7165;52.388;4.928;2022-12-01T13:25:12;8.80;99.90
14172;DHT22;7165;52.388;4.928;2022-12-01T13:27:41;8.80;99.90
14172;DHT22;7165;52.388;4.928;2022-12-01T13:30:17;8.80;99.90
14172;DHT22;7165;52.388;4.928;2022-12-01T13:32:45;8.80;99.90
14172;DHT22;7165;52.388;4.928;2022-12-01T13:35:22;8.80;99.90
14172;DHT22;7165;52.388;4.928;2022-12-01T13:37:51;8.80;99.90
14172;DHT22;7165;52.388;4.928;2022-12-01T13:40:21;8.80;99.90
14172;DHT22;7165;52.388;4.928;2022-12-01T13:42:55;8.80;99.90
14172;DHT22;7165;52.388;4.928;2022-12-01T13:45:22;8.80;99.90
14172;DHT22;7165;52.388;4.928;2022-12-01T13:47:52;8.80;99.90
14172;DHT22;7165;52.388;4.928;2022-12-01T13:50:54;8.80;99.90
14172;DHT22;7165;52.388;4.928;2022-12-01T13:53:27;8.80;99.90
14172;DHT22;7165;52.388;4.928;2022-12-01T13:55:57;8.80;99.90
14172;DHT22;7165;52.388;4.928;2022-12-01T13:58:39;8.70;99.90
14172;DHT22;7165;52.388;4.928;2022-12-01T14:01:45;8.70;99.90
14172;DHT22;7165;52.388;4.928;2022-12-01T14:04:29;8.70;99.90
14172;DHT22;7165;52.388;4.928;2022-12-01T14:07:23;8.70;99.90
14172;DHT22;7165;52.388;4.928;2022-12-01T14:09:56;8.60;99.90
14172;DHT22;7165;52.388;4.928;2022-12-01T14:12:26;8.60;99.90
14172;DHT22;7165;52.388;4.928;2022-12-01T14:14:58;8.50;99.90
14172;DHT22;7165;52.388;4.928;2022-12-01T14:17:28;8.50;99.90
14172;DHT22;7165;52.388;4.928;2022-12-01T14:20:03;8.50;99.90
14172;DHT22;7165;52.388;4.928;2022-12-01T14:22:36;8.40;99.90
14172;DHT22;7165;52.388;4.928;2022-12-01T14:25:20;8.40;99.90
14172;DHT22;7165;52.388;4.928;2022-12-01T14:27:49;8.30;99.90
14172;DHT22;7165;52.388;4.928;2022-12-01T14:33:43;8.30;99.90
14172;DHT22;7165;52.388;4.928;2022-12-01T14:36:17;8.20;99.90
14172;DHT22;7165;52.388;4.928;2022-12-01T14:38:45;8.10;99.90
14172;DHT22;7165;52.388;4.928;2022-12-01T14:41:19;8.10;99.90
14172;DHT22;7165;52.388;4.928;2022-12-01T14:43:48;8.00;99.90
14172;DHT22;7165;52.388;4.928;2022-12-01T14:46:40;8.00;99.90
14172;DHT22;7165;52.388;4.928;2022-12-01T14:49:11;7.90;99.90
14172;DHT22;7165;52.388;4.928;2022-12-01T14:51:43;7.80;99.90
14172;DHT22;7165;52.388;4.928;2022-12-01T14:54:19;7.80;99.90
14172;DHT22;7165;52.388;4.928;2022-12-01T14:56:52;7.70;99.90
14172;DHT22;7165;52.388;4.928;2022-12-01T14:59:21;7.70;99.90
14172;DHT22;7165;52.388;4.928;2022-12-01T15:01:50;7.70;99.90
14172;DHT22;7165;52.388;4.928;2022-12-01T15:04:17;7.60;99.90
14172;DHT22;7165;52.388;4.928;2022-12-01T15:06:45;7.60;99.90
14172;DHT22;7165;52.388;4.928;2022-12-01T15:09:14;7.50;99.90
14172;DHT22;7165;52.388;4.928;2022-12-01T15:11:51;7.50;99.90
14172;DHT22;7165;52.388;4.928;2022-12-01T15:14:32;7.40;99.90
14172;DHT22;7165;52.388;4.928;2022-12-01T15:17:00;7.30;99.90
14172;DHT22;7165;52.388;4.928;2022-12-01T15:19:32;7.20;99.90
14172;DHT22;7165;52.388;4.928;2022-12-01T15:22:03;7.10;99.90
14172;DHT22;7165;52.388;4.928;2022-12-01T15:24:31;7.00;99.90
14172;DHT22;7165;52.388;4.928;2022-12-01T15:27:00;6.90;99.90
14172;DHT22;7165;52.388;4.928;2022-12-01T15:29:28;6.80;99.90
14172;DHT22;7165;52.388;4.928;2022-12-01T15:31:57;6.70;99.90
14172;DHT22;7165;52.388;4.928;2022-12-01T15:34:28;6.70;99.90
14172;DHT22;7165;52.388;4.928;2022-12-01T15:36:56;6.60;99.90
14172;DHT22;7165;52.388;4.928;2022-12-01T15:39:32;6.50;99.90
14172;DHT22;7165;52.388;4.928;2022-12-01T15:42:02;6.50;99.90
14172;DHT22;7165;52.388;4.928;2022-12-01T15:44:31;6.40;99.90
14172;DHT22;7165;52.388;4.928;2022-12-01T15:47:00;6.30;99.90
14172;DHT22;7165;52.388;4.928;2022-12-01T15:49:48;6.20;99.90
14172;DHT22;7165;52.388;4.928;2022-12-01T15:52:20;6.20;99.90
14172;DHT22;7165;52.388;4.928;2022-12-01T15:54:47;6.10;99.90
14172;DHT22;7165;52.388;4.928;2022-12-01T15:57:17;6.00;99.90
14172;DHT22;7165;52.388;4.928;2022-12-01T15:59:46;6.00;99.90
14172;DHT22;7165;52.388;4.928;2022-12-01T16:02:25;5.90;99.90
14172;DHT22;7165;52.388;4.928;2022-12-01T16:05:00;5.90;99.90
14172;DHT22;7165;52.388;4.928;2022-12-01T16:07:31;5.90;99.90
14172;DHT22;7165;52.388;4.928;2022-12-01T16:09:59;5.90;99.90
14172;DHT22;7165;52.388;4.928;2022-12-01T16:12:28;6.00;99.90
14172;DHT22;7165;52.388;4.928;2022-12-01T16:15:11;5.90;99.90
14172;DHT22;7165;52.388;4.928;2022-12-01T16:17:43;6.00;99.90
14172;DHT22;7165;52.388;4.928;2022-12-01T16:20:15;6.00;99.90
14172;DHT22;7165;52.388;4.928;2022-12-01T16:22:43;6.10;99.90
14172;DHT22;7165;52.388;4.928;2022-12-01T16:25:16;6.10;99.90
14172;DHT22;7165;52.388;4.928;2022-12-01T16:27:51;6.00;99.90
14172;DHT22;7165;52.388;4.928;2022-12-01T16:30:20;6.00;99.90
14172;DHT22;7165;52.388;4.928;2022-12-01T16:32:47;6.10;99.90
14172;DHT22;7165;52.388;4.928;2022-12-01T16:35:21;6.10;99.90